createdAt,value
2018-01-20T00:00:50.513Z,10.72
2018-01-20T00:03:22.654Z,10.70
2018-01-20T00:05:51.134Z,10.67
2018-01-20T00:08:19.118Z,10.66
2018-01-20T00:10:59.155Z,10.67
2018-01-20T00:13:27.406Z,10.66
2018-01-20T00:15:55.430Z,10.65
2018-01-20T00:18:23.473Z,10.65
2018-01-20T00:20:55.761Z,10.66
2018-01-20T00:23:26.172Z,10.66
2018-01-20T00:26:01.723Z,10.65
2018-01-20T00:28:29.884Z,10.63
2018-01-20T00:30:57.963Z,10.63
2018-01-20T00:33:25.978Z,10.62
2018-01-20T00:35:56.220Z,10.60
2018-01-20T00:38:24.408Z,10.57
2018-01-20T00:40:52.299Z,10.59
2018-01-20T00:43:22.524Z,10.58
2018-01-20T00:45:50.734Z,10.58
2018-01-20T00:48:18.721Z,10.56
2018-01-20T00:50:46.987Z,10.56
2018-01-20T00:53:14.977Z,10.56
2018-01-20T00:55:42.917Z,10.56
2018-01-20T00:58:11.009Z,10.54
2018-01-20T01:00:39.202Z,10.54
2018-01-20T01:03:07.139Z,10.52
2018-01-20T01:05:35.305Z,10.52
2018-01-20T01:08:03.298Z,10.51
2018-01-20T01:10:31.362Z,10.51
2018-01-20T01:12:59.550Z,10.51
2018-01-20T01:15:27.493Z,10.48
2018-01-20T01:17:55.708Z,10.48
2018-01-20T01:20:23.881Z,10.48
2018-01-20T01:22:51.815Z,10.48
2018-01-20T01:25:19.727Z,10.48
2018-01-20T01:27:47.997Z,10.47
2018-01-20T01:30:18.327Z,10.42
2018-01-20T01:32:46.384Z,10.43
2018-01-20T01:35:14.640Z,10.44
2018-01-20T01:37:42.584Z,10.45
2018-01-20T01:40:13.369Z,10.42
2018-01-20T01:42:41.289Z,10.43
2018-01-20T01:45:09.254Z,10.44
2018-01-20T01:47:37.319Z,10.43
2018-01-20T01:50:07.235Z,10.43
2018-01-20T01:52:35.559Z,10.43
2018-01-20T01:55:11.100Z,10.44
2018-01-20T01:57:39.381Z,10.43
2018-01-20T02:00:07.522Z,10.42
2018-01-20T02:02:35.829Z,10.42
2018-01-20T02:05:03.678Z,10.42
2018-01-20T02:07:31.972Z,10.43
2018-01-20T02:09:59.935Z,10.42
2018-01-20T02:12:32.414Z,10.41
2018-01-20T02:15:00.339Z,10.41
2018-01-20T02:17:30.407Z,10.40
2018-01-20T02:19:58.379Z,10.39
2018-01-20T02:22:26.550Z,10.39
2018-01-20T02:24:54.800Z,10.38
2018-01-20T02:27:22.793Z,10.38
2018-01-20T02:29:50.842Z,10.37
2018-01-20T02:32:19.132Z,10.36
2018-01-20T02:34:47.389Z,10.34
2018-01-20T02:37:15.330Z,10.34
2018-01-20T02:39:43.419Z,10.34
2018-01-20T02:42:11.614Z,10.32
2018-01-20T02:44:39.326Z,10.33
2018-01-20T02:47:07.317Z,10.32
2018-01-20T02:49:41.058Z,10.32
2018-01-20T02:52:08.923Z,10.31
2018-01-20T02:54:36.992Z,10.30
2018-01-20T02:57:05.233Z,10.29
2018-01-20T02:59:33.456Z,10.28
2018-01-20T03:02:01.821Z,10.25
2018-01-20T03:04:29.700Z,10.25
2018-01-20T03:06:57.715Z,10.25
2018-01-20T03:09:25.934Z,10.23
2018-01-20T03:11:54.103Z,10.23
2018-01-20T03:14:22.062Z,10.24
2018-01-20T03:16:50.053Z,10.23
2018-01-20T03:19:20.242Z,10.23
2018-01-20T03:21:48.409Z,10.22
2018-01-20T03:24:16.373Z,10.22
2018-01-20T03:26:44.564Z,10.22
2018-01-20T03:29:14.602Z,10.22
2018-01-20T03:31:42.720Z,10.21
2018-01-20T03:34:12.903Z,10.20
2018-01-20T03:36:41.152Z,10.20
2018-01-20T03:39:11.187Z,10.18
2018-01-20T03:41:39.382Z,10.18
2018-01-20T03:44:07.502Z,10.18
2018-01-20T03:46:35.471Z,10.17
2018-01-20T03:49:03.767Z,10.17
2018-01-20T03:51:35.844Z,10.16
2018-01-20T03:54:03.960Z,10.16
2018-01-20T03:56:31.717Z,10.16
2018-01-20T03:58:59.359Z,10.14
2018-01-20T04:01:27.356Z,10.14
2018-01-20T04:03:55.422Z,10.14
2018-01-20T04:06:23.512Z,10.13
2018-01-20T04:08:51.477Z,10.10
2018-01-20T04:11:19.670Z,10.12
2018-01-20T04:13:47.709Z,10.11
2018-01-20T04:16:15.699Z,10.11
2018-01-20T04:18:43.996Z,10.09
2018-01-20T04:21:14.222Z,10.09
2018-01-20T04:23:42.094Z,10.09
2018-01-20T04:26:10.245Z,10.10
2018-01-20T04:28:38.329Z,10.09
2018-01-20T04:31:06.392Z,10.09
2018-01-20T04:33:34.457Z,10.09
2018-01-20T04:36:02.498Z,10.09
2018-01-20T04:38:34.793Z,10.07
2018-01-20T04:41:02.981Z,10.06
2018-01-20T04:43:31.018Z,10.06
2018-01-20T04:45:58.983Z,10.05
2018-01-20T04:48:27.299Z,10.03
2018-01-20T04:50:57.350Z,10.04
2018-01-20T04:53:25.356Z,10.03
2018-01-20T04:55:53.547Z,10.02
2018-01-20T04:58:21.487Z,10.00
2018-01-20T05:00:51.693Z,10.00
2018-01-20T05:03:19.920Z,9.99
2018-01-20T05:05:48.406Z,9.98
2018-01-20T05:08:16.483Z,9.97
2018-01-20T05:10:44.236Z,9.96
2018-01-20T05:13:11.931Z,9.96
2018-01-20T05:15:39.871Z,9.96
2018-01-20T05:18:08.013Z,9.95
2018-01-20T05:20:36.012Z,9.95
2018-01-20T05:23:06.135Z,9.95
2018-01-20T05:25:34.283Z,9.94
2018-01-20T05:28:04.523Z,9.95
2018-01-20T05:30:32.802Z,9.94
2018-01-20T05:33:01.181Z,9.94
2018-01-20T05:35:29.554Z,9.94
2018-01-20T05:37:57.820Z,9.95
2018-01-20T05:40:25.774Z,9.95
2018-01-20T05:42:54.080Z,9.96
2018-01-20T05:45:24.055Z,9.96
2018-01-20T05:47:51.821Z,9.97
2018-01-20T05:50:21.984Z,9.96
2018-01-20T05:52:54.101Z,9.97
2018-01-20T05:55:24.494Z,9.98
2018-01-20T05:57:52.795Z,10.01
2018-01-20T06:00:26.785Z,10.18
2018-01-20T06:02:54.815Z,10.21
2018-01-20T06:05:25.039Z,10.18
2018-01-20T06:07:53.194Z,10.18
2018-01-20T06:10:21.162Z,10.33
2018-01-20T06:12:49.426Z,10.40
2018-01-20T06:15:17.734Z,10.48
2018-01-20T06:17:52.463Z,10.49
2018-01-20T06:20:20.472Z,10.52
2018-01-20T06:22:48.568Z,10.52
2018-01-20T06:25:16.496Z,10.61
2018-01-20T06:27:45.463Z,10.58
2018-01-20T06:30:15.510Z,10.53
2018-01-20T06:32:45.918Z,10.50
2018-01-20T06:35:14.329Z,10.65
2018-01-20T06:37:42.404Z,10.56
2018-01-20T06:40:10.497Z,10.45
2018-01-20T06:42:38.991Z,10.39
2018-01-20T06:45:07.804Z,10.35
2018-01-20T06:47:36.788Z,10.35
2018-01-20T06:50:04.668Z,10.34
2018-01-20T06:52:33.023Z,10.32
2018-01-20T06:55:02.843Z,10.30
2018-01-20T06:57:30.979Z,10.37
2018-01-20T06:59:59.203Z,10.40
2018-01-20T07:02:29.312Z,10.38
2018-01-20T07:04:57.677Z,10.35
2018-01-20T07:07:25.941Z,10.34
2018-01-20T07:09:55.958Z,10.35
2018-01-20T07:12:27.849Z,10.49
2018-01-20T07:14:59.698Z,10.46
2018-01-20T07:17:27.528Z,10.41
2018-01-20T07:19:56.148Z,10.40
2018-01-20T07:22:24.526Z,10.46
2018-01-20T07:24:52.523Z,10.45
2018-01-20T07:27:20.975Z,10.44
2018-01-20T07:29:49.722Z,10.46
2018-01-20T07:32:17.796Z,10.46
2018-01-20T07:34:45.987Z,10.56
2018-01-20T07:37:13.951Z,10.58
2018-01-20T07:39:42.892Z,10.66
2018-01-20T07:42:11.008Z,10.65
2018-01-20T07:44:39.374Z,10.62
2018-01-20T07:47:08.308Z,10.61
2018-01-20T07:49:36.755Z,10.60
2018-01-20T07:52:04.465Z,10.60
2018-01-20T07:54:33.132Z,10.58
2018-01-20T07:57:07.028Z,10.66
2018-01-20T07:59:41.982Z,10.64
2018-01-20T08:02:10.106Z,10.61
2018-01-20T08:04:38.072Z,10.55
2018-01-20T08:07:08.033Z,10.53
2018-01-20T08:09:35.693Z,10.53
2018-01-20T08:12:03.819Z,10.53
2018-01-20T08:14:32.035Z,10.53
2018-01-20T08:17:00.033Z,10.51
2018-01-20T08:19:30.123Z,10.62
2018-01-20T08:21:58.389Z,10.65
2018-01-20T08:24:26.471Z,10.68
2018-01-20T08:26:54.538Z,10.73
2018-01-20T08:29:22.526Z,10.79
2018-01-20T08:31:50.543Z,10.84
2018-01-20T08:34:20.709Z,10.91
2018-01-20T08:36:50.933Z,11.13
2018-01-20T08:39:19.304Z,11.17
2018-01-20T08:41:49.535Z,11.19
2018-01-20T08:44:17.907Z,11.16
2018-01-20T08:46:45.967Z,11.16
2018-01-20T08:49:13.959Z,11.13
2018-01-20T08:51:42.064Z,11.29
2018-01-20T08:54:11.016Z,11.29
2018-01-20T08:56:41.157Z,11.25
2018-01-20T08:59:09.264Z,11.22
2018-01-20T09:01:37.167Z,11.17
2018-01-20T09:04:05.294Z,11.14
2018-01-20T09:06:33.359Z,11.12
2018-01-20T09:09:01.550Z,11.11
2018-01-20T09:11:31.603Z,11.12
2018-01-20T09:13:59.369Z,11.10
2018-01-20T09:16:27.138Z,11.25
2018-01-20T09:18:55.394Z,11.24
2018-01-20T09:21:23.628Z,11.22
2018-01-20T09:23:53.603Z,11.19
2018-01-20T09:26:23.753Z,11.27
2018-01-20T09:28:53.013Z,11.26
2018-01-20T09:31:23.240Z,11.36
2018-01-20T09:33:51.054Z,11.34
2018-01-20T09:36:19.244Z,11.45
2018-01-20T09:38:51.186Z,11.41
2018-01-20T09:41:19.250Z,11.48
2018-01-20T09:43:51.271Z,11.43
2018-01-20T09:46:19.185Z,11.36
2018-01-20T09:48:51.411Z,11.31
2018-01-20T09:51:19.664Z,11.42
2018-01-20T09:53:47.727Z,11.38
2018-01-20T09:56:15.795Z,11.32
2018-01-20T09:58:45.961Z,11.28
2018-01-20T10:01:14.210Z,11.24
2018-01-20T10:03:42.583Z,11.21
2018-01-20T10:06:10.408Z,11.18
2018-01-20T10:08:38.621Z,11.16
2018-01-20T10:11:06.664Z,11.16
2018-01-20T10:13:38.873Z,11.14
2018-01-20T10:16:07.248Z,11.25
2018-01-20T10:18:37.468Z,11.26
2018-01-20T10:21:07.692Z,11.24
2018-01-20T10:23:37.708Z,11.22
2018-01-20T10:26:05.339Z,11.22
2018-01-20T10:28:34.120Z,11.31
2018-01-20T10:31:06.424Z,11.31
2018-01-20T10:33:34.253Z,11.29
2018-01-20T10:36:02.420Z,11.26
2018-01-20T10:38:30.384Z,11.25
2018-01-20T10:41:00.551Z,11.24
2018-01-20T10:43:28.920Z,11.24
2018-01-20T10:45:56.887Z,11.23
2018-01-20T10:48:25.061Z,11.23
2018-01-20T10:50:53.309Z,11.23
2018-01-20T10:53:22.300Z,11.24
2018-01-20T10:55:50.053Z,11.23
2018-01-20T10:58:18.267Z,11.25
2018-01-20T11:00:50.376Z,11.27
2018-01-20T11:03:18.588Z,11.29
2018-01-20T11:05:46.529Z,11.28
2018-01-20T11:08:14.851Z,11.43
2018-01-20T11:10:45.260Z,11.47
2018-01-20T11:13:13.759Z,11.61
2018-01-20T11:15:41.590Z,11.59
2018-01-20T11:18:09.790Z,11.68
2018-01-20T11:20:37.923Z,11.63
2018-01-20T11:23:06.964Z,11.73
2018-01-20T11:25:34.736Z,11.69
2018-01-20T11:28:02.619Z,11.61
2018-01-20T11:30:30.768Z,11.75
2018-01-20T11:32:58.900Z,11.81
2018-01-20T11:35:27.541Z,11.77
2018-01-20T11:37:55.553Z,11.72
2018-01-20T11:40:26.546Z,11.80
2018-01-20T11:42:56.753Z,11.83
2018-01-20T11:45:25.026Z,11.79
2018-01-20T11:47:53.840Z,11.71
2018-01-20T11:50:21.956Z,11.71
2018-01-20T11:52:52.125Z,11.70
2018-01-20T11:55:24.988Z,11.69
2018-01-20T11:57:53.163Z,11.73
2018-01-20T12:00:21.235Z,11.72
2018-01-20T12:02:49.922Z,11.69
2018-01-20T12:05:17.801Z,11.68
2018-01-20T12:07:45.916Z,11.63
2018-01-20T12:10:13.880Z,11.60
2018-01-20T12:12:44.121Z,11.78
2018-01-20T12:15:12.731Z,11.71
2018-01-20T12:17:41.478Z,11.66
2018-01-20T12:20:09.694Z,11.62
2018-01-20T12:22:37.860Z,11.75
2018-01-20T12:25:05.936Z,11.73
2018-01-20T12:27:36.114Z,11.67
2018-01-20T12:30:04.844Z,11.62
2018-01-20T12:32:40.907Z,11.58
2018-01-20T12:35:08.637Z,11.55
2018-01-20T12:37:37.311Z,11.53
2018-01-20T12:40:05.318Z,11.64
2018-01-20T12:42:33.260Z,11.64
2018-01-20T12:45:03.597Z,11.65
2018-01-20T12:47:31.438Z,11.63
2018-01-20T12:49:59.727Z,11.63
2018-01-20T12:52:27.769Z,11.62
2018-01-20T12:54:55.588Z,11.61
2018-01-20T12:57:23.951Z,11.60
2018-01-20T12:59:54.092Z,11.58
2018-01-20T13:02:22.269Z,11.57
2018-01-20T13:04:50.430Z,11.55
2018-01-20T13:07:18.662Z,11.52
2018-01-20T13:09:46.660Z,11.52
2018-01-20T13:12:15.918Z,11.50
2018-01-20T13:14:48.252Z,11.49
2018-01-20T13:17:17.159Z,11.51
2018-01-20T13:19:45.310Z,11.53
2018-01-20T13:22:17.389Z,11.54
2018-01-20T13:24:45.443Z,11.54
2018-01-20T13:27:16.446Z,11.55
2018-01-20T13:29:44.377Z,11.54
2018-01-20T13:32:13.143Z,11.61
2018-01-20T13:34:41.422Z,11.60
2018-01-20T13:37:09.790Z,11.59
2018-01-20T13:39:37.615Z,11.60
2018-01-20T13:42:05.251Z,11.57
2018-01-20T13:44:33.388Z,11.56
2018-01-20T13:47:05.808Z,11.54
2018-01-20T13:49:34.561Z,11.58
2018-01-20T13:52:03.405Z,11.58
2018-01-20T13:54:31.742Z,11.57
2018-01-20T13:57:01.126Z,11.55
2018-01-20T13:59:30.263Z,11.53
2018-01-20T14:02:01.378Z,11.51
2018-01-20T14:04:29.938Z,11.49
2018-01-20T14:06:58.719Z,11.48
2018-01-20T14:09:27.375Z,11.46
2018-01-20T14:11:58.515Z,11.45
2018-01-20T14:14:26.827Z,11.44
2018-01-20T14:16:54.608Z,11.42
2018-01-20T14:19:22.865Z,11.40
2018-01-20T14:21:50.830Z,11.40
2018-01-20T14:24:20.169Z,11.39
2018-01-20T14:26:48.411Z,11.37
2018-01-20T14:29:16.677Z,11.35
2018-01-20T14:31:44.615Z,11.44
2018-01-20T14:34:14.776Z,11.50
2018-01-20T14:36:43.296Z,11.44
2018-01-20T14:39:11.387Z,11.42
2018-01-20T14:41:41.578Z,11.38
2018-01-20T14:44:09.702Z,11.35
2018-01-20T14:46:40.108Z,11.33
2018-01-20T14:49:08.373Z,11.29
2018-01-20T14:51:36.314Z,11.25
2018-01-20T14:54:04.562Z,11.21
2018-01-20T14:56:36.635Z,11.20
2018-01-20T14:59:06.638Z,11.17
2018-01-20T15:01:35.601Z,11.15
2018-01-20T15:04:03.789Z,11.15
2018-01-20T15:06:31.767Z,11.13
2018-01-20T15:09:01.946Z,11.10
2018-01-20T15:11:30.198Z,11.09
2018-01-20T15:13:58.305Z,11.10
2018-01-20T15:16:26.293Z,11.08
2018-01-20T15:18:55.360Z,11.07
2018-01-20T15:21:23.530Z,11.07
2018-01-20T15:23:51.915Z,11.05
2018-01-20T15:26:20.245Z,11.01
2018-01-20T15:28:50.268Z,11.01
2018-01-20T15:31:18.386Z,11.01
2018-01-20T15:33:46.352Z,11.00
2018-01-20T15:36:16.393Z,11.01
2018-01-20T15:38:45.084Z,11.00
2018-01-20T15:41:13.024Z,10.99
2018-01-20T15:43:41.217Z,10.97
2018-01-20T15:46:14.335Z,10.93
2018-01-20T15:48:43.069Z,10.90
2018-01-20T15:51:12.320Z,10.90
2018-01-20T15:53:40.733Z,10.90
2018-01-20T15:56:08.716Z,10.91
2018-01-20T15:58:36.682Z,10.90
2018-01-20T16:01:06.140Z,10.89
2018-01-20T16:03:34.398Z,10.87
2018-01-20T16:06:06.272Z,10.85
2018-01-20T16:08:37.428Z,10.85
2018-01-20T16:11:08.308Z,10.87
2018-01-20T16:13:41.288Z,10.86
2018-01-20T16:16:09.609Z,10.87
2018-01-20T16:18:37.763Z,10.86
2018-01-20T16:21:05.921Z,10.85
2018-01-20T16:23:34.336Z,10.80
2018-01-20T16:26:06.548Z,10.81
2018-01-20T16:28:36.791Z,10.80
2018-01-20T16:31:05.108Z,10.83
2018-01-20T16:33:33.950Z,10.82
2018-01-20T16:36:02.618Z,10.84
2018-01-20T16:38:31.464Z,10.84
2018-01-20T16:40:59.534Z,10.82
2018-01-20T16:43:27.784Z,10.83
2018-01-20T16:46:00.957Z,10.85
2018-01-20T16:48:29.276Z,10.84
2018-01-20T16:51:00.017Z,10.84
2018-01-20T16:53:28.489Z,10.83
2018-01-20T16:55:58.729Z,10.84
2018-01-20T16:58:26.677Z,10.83
2018-01-20T17:00:55.463Z,10.85
2018-01-20T17:03:24.109Z,10.85
2018-01-20T17:05:52.898Z,10.84
2018-01-20T17:08:23.624Z,10.85
2018-01-20T17:10:51.633Z,10.85
2018-01-20T17:13:19.610Z,10.85
2018-01-20T17:15:50.735Z,10.85
2018-01-20T17:18:19.333Z,10.85
2018-01-20T17:20:50.499Z,10.85
2018-01-20T17:23:18.856Z,10.85
2018-01-20T17:25:46.825Z,10.84
2018-01-20T17:28:21.755Z,10.85
2018-01-20T17:30:49.588Z,10.85
2018-01-20T17:33:18.430Z,10.84
2018-01-20T17:35:46.856Z,10.85
2018-01-20T17:38:14.966Z,10.85
2018-01-20T17:40:47.140Z,10.84
2018-01-20T17:43:14.830Z,10.84
2018-01-20T17:45:42.869Z,10.84
2018-01-20T17:48:13.097Z,10.84
2018-01-20T17:50:42.082Z,10.83
2018-01-20T17:53:13.222Z,10.82
2018-01-20T17:55:41.059Z,10.83
2018-01-20T17:58:09.358Z,10.82
2018-01-20T18:00:42.660Z,10.81
2018-01-20T18:03:11.240Z,10.80
2018-01-20T18:05:38.999Z,10.80
2018-01-20T18:08:07.988Z,10.79
2018-01-20T18:10:37.086Z,10.77
2018-01-20T18:13:06.081Z,10.76
2018-01-20T18:15:38.152Z,10.76
2018-01-20T18:18:06.046Z,10.74
2018-01-20T18:20:34.140Z,10.74
2018-01-20T18:23:02.104Z,10.69
2018-01-20T18:25:31.049Z,10.65
2018-01-20T18:27:59.869Z,10.60
2018-01-20T18:30:29.946Z,10.56
2018-01-20T18:32:58.850Z,10.51
2018-01-20T18:35:28.865Z,10.44
2018-01-20T18:37:56.672Z,10.41
2018-01-20T18:40:24.865Z,10.41
2018-01-20T18:42:52.830Z,10.34
2018-01-20T18:45:21.018Z,10.34
2018-01-20T18:47:48.912Z,10.34
2018-01-20T18:50:17.159Z,10.32
2018-01-20T18:52:45.219Z,10.36
2018-01-20T18:55:13.182Z,10.38
2018-01-20T18:57:41.447Z,10.40
2018-01-20T19:00:11.723Z,10.41
2018-01-20T19:02:41.728Z,10.40
2018-01-20T19:05:09.668Z,10.39
2018-01-20T19:07:39.934Z,10.41
2018-01-20T19:10:09.100Z,10.39
2018-01-20T19:12:37.137Z,10.35
2018-01-20T19:15:05.829Z,10.37
2018-01-20T19:17:33.795Z,10.30
2018-01-20T19:20:07.220Z,10.34
2018-01-20T19:22:38.037Z,10.29
2018-01-20T19:25:05.765Z,10.30
2018-01-20T19:27:33.856Z,10.29
2018-01-20T19:30:06.184Z,10.30
2018-01-20T19:32:34.311Z,10.26
2018-01-20T19:35:04.453Z,10.25
2018-01-20T19:37:32.750Z,10.26
2018-01-20T19:40:01.130Z,10.27
2018-01-20T19:42:29.998Z,10.26
2018-01-20T19:44:57.975Z,10.26
2018-01-20T19:47:26.336Z,10.29
2018-01-20T19:49:54.397Z,10.28
2018-01-20T19:52:24.546Z,10.30
2018-01-20T19:54:52.504Z,10.30
2018-01-20T19:57:23.771Z,10.32
2018-01-20T19:59:51.782Z,10.33
2018-01-20T20:02:20.400Z,10.34
2018-01-20T20:04:49.203Z,10.34
2018-01-20T20:07:24.349Z,10.34
2018-01-20T20:09:52.415Z,10.34
2018-01-20T20:12:35.636Z,10.35
2018-01-20T20:15:24.596Z,10.37
2018-01-20T20:18:10.437Z,10.35
2018-01-20T20:20:53.717Z,10.35
2018-01-20T20:23:25.892Z,10.38
2018-01-20T20:26:00.282Z,10.39
2018-01-20T20:28:33.132Z,10.40
2018-01-20T20:31:02.073Z,10.44
2018-01-20T20:33:30.029Z,10.46
2018-01-20T20:35:58.268Z,10.47
2018-01-20T20:38:26.907Z,10.48
2018-01-20T20:40:55.450Z,10.49
2018-01-20T20:43:24.932Z,10.49
2018-01-20T20:45:53.981Z,10.50
2018-01-20T20:48:22.291Z,10.51
2018-01-20T20:50:53.105Z,10.52
2018-01-20T20:53:21.928Z,10.52
2018-01-20T20:55:50.518Z,10.52
2018-01-20T20:58:22.735Z,10.52
2018-01-20T21:00:50.904Z,10.52
2018-01-20T21:03:19.040Z,10.52
2018-01-20T21:05:47.230Z,10.52
2018-01-20T21:08:15.173Z,10.52
2018-01-20T21:10:43.361Z,10.54
2018-01-20T21:13:11.326Z,10.55
2018-01-20T21:15:39.551Z,10.56
2018-01-20T21:18:08.028Z,10.56
2018-01-20T21:20:38.247Z,10.55
2018-01-20T21:23:06.115Z,10.57
2018-01-20T21:25:36.265Z,10.56
2018-01-20T21:28:04.494Z,10.56
2018-01-20T21:30:32.561Z,10.54
2018-01-20T21:33:01.224Z,10.54
2018-01-20T21:35:29.424Z,10.54
2018-01-20T21:37:59.656Z,10.53
2018-01-20T21:40:27.470Z,10.54
2018-01-20T21:42:55.543Z,10.52
2018-01-20T21:45:23.742Z,10.52
2018-01-20T21:47:51.939Z,10.51
2018-01-20T21:50:20.923Z,10.51
2018-01-20T21:52:48.998Z,10.51
2018-01-20T21:55:17.372Z,10.49
2018-01-20T21:57:48.064Z,10.51
2018-01-20T22:00:15.980Z,10.51
2018-01-20T22:02:46.198Z,10.52
2018-01-20T22:05:16.476Z,10.53
2018-01-20T22:07:46.301Z,10.52
2018-01-20T22:10:16.288Z,10.50
2018-01-20T22:12:44.350Z,10.49
2018-01-20T22:15:16.968Z,10.48
2018-01-20T22:17:46.390Z,10.48
2018-01-20T22:20:15.993Z,10.48
2018-01-20T22:22:45.452Z,10.48
2018-01-20T22:25:17.547Z,10.47
2018-01-20T22:27:47.151Z,10.48
2018-01-20T22:30:20.237Z,10.49
2018-01-20T22:32:49.806Z,10.48
2018-01-20T22:35:19.014Z,10.47
2018-01-20T22:37:48.416Z,10.47
2018-01-20T22:40:20.819Z,10.47
2018-01-20T22:42:50.922Z,10.47
2018-01-20T22:45:20.042Z,10.46
2018-01-20T22:47:53.316Z,10.47
2018-01-20T22:50:23.258Z,10.46
2018-01-20T22:52:52.045Z,10.43
2018-01-20T22:55:22.411Z,10.42
2018-01-20T22:57:51.219Z,10.40
2018-01-20T23:00:20.338Z,10.39
2018-01-20T23:02:53.454Z,10.38
2018-01-20T23:05:22.989Z,10.38
2018-01-20T23:07:52.341Z,10.38
2018-01-20T23:10:21.948Z,10.38
2018-01-20T23:12:53.080Z,10.40
2018-01-20T23:15:22.068Z,10.40
2018-01-20T23:17:51.215Z,10.40
2018-01-20T23:20:22.634Z,10.39
2018-01-20T23:22:52.147Z,10.38
2018-01-20T23:25:22.279Z,10.39
2018-01-20T23:27:54.386Z,10.38
2018-01-20T23:30:22.756Z,10.38
2018-01-20T23:32:55.396Z,10.38
2018-01-20T23:35:24.502Z,10.38
2018-01-20T23:37:52.646Z,10.38
2018-01-20T23:40:23.602Z,10.38
2018-01-20T23:42:51.969Z,10.37
2018-01-20T23:45:20.664Z,10.38
2018-01-20T23:47:48.607Z,10.39
2018-01-20T23:50:17.719Z,10.38
2018-01-20T23:52:46.420Z,10.38
2018-01-20T23:55:15.705Z,10.37
2018-01-20T23:57:43.475Z,10.37
